createdAt,value
2018-04-22T00:01:09.451Z,90.90
2018-04-22T00:03:37.898Z,91.10
2018-04-22T00:06:07.276Z,91.80
2018-04-22T00:08:35.902Z,91.80
2018-04-22T00:11:04.328Z,91.80
2018-04-22T00:13:32.670Z,92.10
2018-04-22T00:16:02.239Z,92.30
2018-04-22T00:18:30.700Z,92.50
2018-04-22T00:20:59.153Z,92.90
2018-04-22T00:23:27.491Z,93.30
2018-04-22T00:25:56.975Z,93.90
2018-04-22T00:28:26.099Z,94.20
2018-04-22T00:30:54.440Z,94.20
2018-04-22T00:33:22.792Z,94.40
2018-04-22T00:35:51.128Z,94.80
2018-04-22T00:38:20.230Z,94.90
2018-04-22T00:40:48.578Z,94.90
2018-04-22T00:43:17.108Z,95.40
2018-04-22T00:45:45.621Z,95.50
2018-04-22T00:48:14.053Z,95.60
2018-04-22T00:50:43.801Z,95.80
2018-04-22T00:53:12.141Z,95.80
2018-04-22T00:55:41.353Z,96.60
2018-04-22T00:58:09.702Z,96.60
2018-04-22T01:00:38.895Z,96.80
2018-04-22T01:03:07.241Z,96.80
2018-04-22T01:05:35.586Z,97.00
2018-04-22T01:08:03.932Z,97.20
2018-04-22T01:10:33.058Z,97.40
2018-04-22T01:13:01.517Z,97.20
2018-04-22T01:15:29.924Z,97.30
2018-04-22T01:17:58.264Z,97.30
2018-04-22T01:20:26.715Z,97.00
2018-04-22T01:22:55.101Z,97.40
2018-04-22T01:25:23.425Z,97.50
2018-04-22T01:27:51.767Z,97.60
2018-04-22T01:30:20.903Z,98.00
2018-04-22T01:32:50.039Z,98.00
2018-04-22T01:35:18.454Z,98.00
2018-04-22T01:37:46.817Z,97.90
2018-04-22T01:40:15.258Z,98.10
2018-04-22T01:42:43.814Z,98.30
2018-04-22T01:45:12.147Z,98.30
2018-04-22T01:47:40.732Z,98.50
2018-04-22T01:50:09.119Z,98.50
2018-04-22T01:52:37.488Z,98.50
2018-04-22T01:55:05.871Z,98.70
2018-04-22T01:57:34.334Z,98.50
2018-04-22T02:00:02.676Z,98.90
2018-04-22T02:02:31.795Z,99.10
2018-04-22T02:05:00.199Z,99.10
2018-04-22T02:07:28.578Z,99.20
2018-04-22T02:09:57.053Z,99.20
2018-04-22T02:12:25.418Z,99.60
2018-04-22T02:14:54.064Z,99.20
2018-04-22T02:17:22.409Z,99.20
2018-04-22T02:19:50.743Z,99.40
2018-04-22T02:22:19.156Z,99.30
2018-04-22T02:24:47.501Z,99.30
2018-04-22T02:27:16.660Z,99.50
2018-04-22T02:29:44.962Z,99.50
2018-04-22T02:32:14.101Z,99.80
2018-04-22T02:34:42.479Z,99.70
2018-04-22T02:37:10.834Z,99.90
2018-04-22T02:39:39.255Z,99.90
2018-04-22T02:42:08.116Z,99.90
2018-04-22T02:44:36.451Z,99.90
2018-04-22T02:47:04.890Z,99.90
2018-04-22T02:49:33.250Z,99.90
2018-04-22T02:52:01.593Z,99.90
2018-04-22T02:54:30.031Z,99.90
2018-04-22T02:56:58.373Z,99.90
2018-04-22T02:59:27.495Z,99.90
2018-04-22T03:01:55.891Z,99.90
2018-04-22T03:04:24.427Z,99.90
2018-04-22T03:06:54.165Z,99.90
2018-04-22T03:09:22.511Z,99.90
2018-04-22T03:11:51.649Z,99.90
2018-04-22T03:14:19.997Z,99.90
2018-04-22T03:16:49.340Z,99.90
2018-04-22T03:19:17.686Z,99.90
2018-04-22T03:21:46.030Z,99.90
2018-04-22T03:24:14.409Z,99.90
2018-04-22T03:26:42.942Z,99.90
2018-04-22T03:29:11.305Z,99.90
2018-04-22T03:31:39.699Z,99.90
2018-04-22T03:34:08.176Z,99.90
2018-04-22T03:36:37.041Z,99.90
2018-04-22T03:39:06.587Z,99.90
2018-04-22T03:41:36.312Z,99.90
2018-04-22T03:44:05.557Z,99.90
2018-04-22T03:46:33.901Z,99.90
2018-04-22T03:49:02.240Z,99.90
2018-04-22T03:51:30.658Z,99.90
2018-04-22T03:53:58.998Z,99.90
2018-04-22T03:56:27.375Z,99.90
2018-04-22T03:58:55.985Z,99.90
2018-04-22T04:01:24.477Z,99.90
2018-04-22T04:03:52.911Z,99.90
2018-04-22T04:06:21.273Z,99.90
2018-04-22T04:08:49.634Z,99.90
2018-04-22T04:11:18.135Z,99.90
2018-04-22T04:13:46.545Z,99.90
2018-04-22T04:16:14.936Z,99.90
2018-04-22T04:19:04.371Z,99.90
2018-04-22T04:21:44.640Z,99.90
2018-04-22T04:30:24.596Z,99.90
2018-04-22T04:32:52.959Z,99.90
2018-04-22T04:35:21.356Z,99.90
2018-04-22T04:37:49.726Z,99.90
2018-04-22T04:40:18.117Z,99.90
2018-04-22T04:42:46.458Z,99.90
2018-04-22T04:45:14.864Z,99.90
2018-04-22T04:47:43.206Z,99.90
2018-04-22T04:50:11.559Z,99.90
2018-04-22T04:52:40.676Z,99.90
2018-04-22T04:55:09.028Z,99.90
2018-04-22T04:57:38.157Z,99.90
2018-04-22T05:00:06.492Z,99.90
2018-04-22T05:02:34.869Z,99.90
2018-04-22T05:05:03.319Z,99.90
2018-04-22T05:07:31.819Z,99.90
2018-04-22T05:10:00.992Z,99.90
2018-04-22T05:12:29.399Z,99.90
2018-04-22T05:14:57.738Z,99.90
2018-04-22T05:17:26.074Z,99.90
2018-04-22T05:19:54.420Z,99.90
2018-04-22T05:22:23.450Z,99.90
2018-04-22T05:24:52.567Z,99.90
2018-04-22T05:27:21.681Z,99.90
2018-04-22T05:29:50.177Z,99.90
2018-04-22T05:32:18.575Z,99.90
2018-04-22T05:34:47.017Z,99.90
2018-04-22T05:37:15.496Z,99.90
2018-04-22T05:39:44.681Z,99.90
2018-04-22T05:42:13.781Z,99.90
2018-04-22T05:44:42.913Z,99.90
2018-04-22T05:47:11.299Z,99.90
2018-04-22T05:49:39.660Z,99.90
2018-04-22T05:52:08.013Z,99.90
2018-04-22T05:54:37.210Z,99.90
2018-04-22T05:57:05.568Z,99.90
2018-04-22T05:59:33.927Z,99.90
2018-04-22T06:02:02.265Z,99.90
2018-04-22T06:04:30.727Z,99.90
2018-04-22T06:06:59.864Z,99.90
2018-04-22T06:09:28.240Z,99.90
2018-04-22T06:11:56.618Z,99.90
2018-04-22T06:14:24.975Z,99.90
2018-04-22T06:16:53.376Z,99.90
2018-04-22T06:19:21.740Z,99.80
2018-04-22T06:21:50.097Z,99.10
2018-04-22T06:24:19.302Z,98.00
2018-04-22T06:26:48.418Z,98.10
2018-04-22T06:29:16.771Z,97.70
2018-04-22T06:31:45.208Z,97.50
2018-04-22T06:34:13.532Z,97.40
2018-04-22T06:36:42.672Z,97.40
2018-04-22T06:39:11.093Z,97.40
2018-04-22T06:41:39.525Z,97.70
2018-04-22T06:44:08.074Z,97.80
2018-04-22T06:46:37.266Z,97.40
2018-04-22T06:49:05.645Z,97.40
2018-04-22T06:51:34.012Z,97.00
2018-04-22T06:54:02.504Z,96.60
2018-04-22T06:56:31.927Z,95.70
2018-04-22T06:59:01.435Z,95.30
2018-04-22T07:01:29.802Z,95.30
2018-04-22T07:03:58.155Z,95.00
2018-04-22T07:06:27.260Z,94.80
2018-04-22T07:08:55.840Z,94.30
2018-04-22T07:11:24.423Z,94.10
2018-04-22T07:13:52.795Z,94.20
2018-04-22T07:16:21.972Z,93.90
2018-04-22T07:18:50.344Z,93.90
2018-04-22T07:21:18.732Z,93.80
2018-04-22T07:23:47.173Z,93.70
2018-04-22T07:26:18.517Z,94.50
2018-04-22T07:28:46.959Z,94.50
2018-04-22T07:31:15.356Z,93.90
2018-04-22T07:33:44.312Z,92.80
2018-04-22T07:36:12.830Z,92.40
2018-04-22T07:38:42.464Z,91.70
2018-04-22T07:41:10.875Z,91.60
2018-04-22T07:43:39.224Z,91.30
2018-04-22T07:46:07.574Z,90.70
2018-04-22T07:48:35.939Z,89.80
2018-04-22T07:51:04.293Z,88.80
2018-04-22T07:53:32.832Z,88.30
2018-04-22T07:56:02.099Z,87.10
2018-04-22T07:58:30.567Z,87.00
2018-04-22T08:00:58.918Z,87.30
2018-04-22T08:03:27.435Z,87.50
2018-04-22T08:05:55.830Z,87.20
2018-04-22T08:08:24.199Z,87.80
2018-04-22T08:10:52.560Z,87.50
2018-04-22T08:13:21.710Z,87.10
2018-04-22T08:15:51.743Z,87.10
2018-04-22T08:18:20.153Z,87.10
2018-04-22T08:20:48.535Z,86.50
2018-04-22T08:23:19.674Z,84.00
2018-04-22T08:25:48.109Z,83.40
2018-04-22T08:28:17.519Z,81.80
2018-04-22T08:30:45.846Z,81.70
2018-04-22T08:33:14.283Z,81.90
2018-04-22T08:35:43.513Z,80.40
2018-04-22T08:38:11.935Z,80.30
2018-04-22T08:40:40.283Z,80.80
2018-04-22T08:43:08.875Z,80.70
2018-04-22T08:45:37.295Z,81.40
2018-04-22T08:48:05.702Z,81.70
2018-04-22T08:50:34.165Z,82.80
2018-04-22T08:53:03.290Z,84.80
2018-04-22T08:55:31.929Z,84.00
2018-04-22T08:58:00.413Z,85.10
2018-04-22T09:00:32.399Z,86.40
2018-04-22T09:03:01.550Z,89.70
2018-04-22T09:05:30.048Z,89.60
2018-04-22T09:07:58.514Z,90.30
2018-04-22T09:10:26.924Z,90.70
2018-04-22T09:12:55.451Z,91.20
2018-04-22T09:15:23.819Z,91.10
2018-04-22T09:17:52.173Z,91.00
2018-04-22T09:20:25.066Z,90.50
2018-04-22T09:22:54.215Z,90.30
2018-04-22T09:25:22.610Z,90.20
2018-04-22T09:27:54.492Z,90.00
2018-04-22T09:30:24.706Z,90.00
2018-04-22T09:32:53.067Z,89.90
2018-04-22T09:35:21.476Z,88.90
2018-04-22T09:37:49.822Z,88.10
2018-04-22T09:40:18.673Z,86.00
2018-04-22T09:42:47.888Z,80.70
2018-04-22T09:45:16.283Z,81.10
2018-04-22T09:47:47.014Z,80.50
2018-04-22T09:50:15.522Z,81.30
2018-04-22T09:52:44.306Z,82.10
2018-04-22T09:55:12.787Z,81.10
2018-04-22T09:57:41.362Z,80.90
2018-04-22T10:00:09.807Z,81.20
2018-04-22T10:02:38.175Z,82.70
2018-04-22T10:05:08.586Z,83.30
2018-04-22T10:07:36.948Z,81.50
2018-04-22T10:10:06.064Z,81.90
2018-04-22T10:12:34.681Z,81.90
2018-04-22T10:15:03.032Z,81.20
2018-04-22T10:17:31.426Z,82.60
2018-04-22T10:19:59.784Z,82.80
2018-04-22T10:22:28.313Z,82.50
2018-04-22T10:24:57.168Z,83.00
2018-04-22T10:27:25.630Z,82.70
2018-04-22T10:29:54.214Z,82.20
2018-04-22T10:32:23.788Z,82.40
2018-04-22T10:34:52.303Z,81.60
2018-04-22T10:37:21.555Z,81.90
2018-04-22T10:39:50.138Z,81.90
2018-04-22T10:42:19.842Z,80.90
2018-04-22T10:44:49.198Z,81.70
2018-04-22T10:47:19.839Z,77.90
2018-04-22T10:49:48.299Z,77.80
2018-04-22T10:52:16.741Z,78.30
2018-04-22T10:54:45.126Z,75.40
2018-04-22T10:57:13.530Z,77.40
2018-04-22T10:59:41.872Z,75.50
2018-04-22T11:02:10.242Z,73.60
2018-04-22T11:04:39.667Z,71.00
2018-04-22T11:07:08.025Z,70.90
2018-04-22T11:09:36.414Z,70.60
2018-04-22T11:12:04.825Z,70.80
2018-04-22T11:14:33.260Z,72.30
2018-04-22T11:17:01.660Z,74.10
2018-04-22T11:19:30.041Z,70.70
2018-04-22T11:21:58.401Z,68.90
2018-04-22T11:24:27.482Z,69.40
2018-04-22T11:26:55.825Z,68.80
2018-04-22T11:29:24.278Z,67.80
2018-04-22T11:31:52.859Z,64.70
2018-04-22T11:34:21.207Z,65.20
2018-04-22T11:36:49.616Z,64.30
2018-04-22T11:39:17.998Z,65.10
2018-04-22T11:41:46.372Z,64.20
2018-04-22T11:44:14.731Z,64.00
2018-04-22T11:46:43.140Z,62.10
2018-04-22T11:49:11.661Z,62.50
2018-04-22T11:51:40.892Z,60.50
2018-04-22T11:54:09.243Z,60.50
2018-04-22T11:56:38.696Z,60.10
2018-04-22T11:59:07.172Z,60.00
2018-04-22T12:01:35.552Z,58.80
2018-04-22T12:04:04.968Z,59.60
2018-04-22T12:06:33.342Z,59.60
2018-04-22T12:09:01.722Z,59.10
2018-04-22T12:11:30.081Z,59.10
2018-04-22T12:13:58.444Z,59.10
2018-04-22T12:16:26.860Z,57.80
2018-04-22T12:18:55.458Z,58.80
2018-04-22T12:21:23.930Z,58.90
2018-04-22T12:23:52.395Z,57.80
2018-04-22T12:26:20.774Z,59.20
2018-04-22T12:28:49.169Z,57.30
2018-04-22T12:31:17.530Z,56.80
2018-04-22T12:33:45.945Z,56.50
2018-04-22T12:36:14.388Z,56.30
2018-04-22T12:38:42.840Z,57.80
2018-04-22T12:41:11.980Z,57.30
2018-04-22T12:43:40.342Z,56.70
2018-04-22T12:46:08.860Z,57.20
2018-04-22T12:48:37.302Z,57.00
2018-04-22T12:51:05.782Z,56.50
2018-04-22T12:53:34.908Z,57.00
2018-04-22T12:56:03.287Z,56.90
2018-04-22T12:58:31.645Z,56.00
2018-04-22T13:01:00.115Z,56.60
2018-04-22T13:03:28.630Z,56.20
2018-04-22T13:05:57.033Z,54.10
2018-04-22T13:08:25.421Z,55.00
2018-04-22T13:10:53.869Z,55.10
2018-04-22T13:13:22.245Z,55.30
2018-04-22T13:15:50.613Z,53.60
2018-04-22T13:18:19.107Z,53.60
2018-04-22T13:20:48.247Z,53.30
2018-04-22T13:23:16.613Z,53.10
2018-04-22T13:25:45.126Z,53.70
2018-04-22T13:28:13.515Z,54.00
2018-04-22T13:30:41.927Z,54.90
2018-04-22T13:33:10.302Z,57.00
2018-04-22T13:35:38.680Z,56.50
2018-04-22T13:38:07.267Z,56.10
2018-04-22T13:40:35.693Z,54.10
2018-04-22T13:43:04.835Z,53.40
2018-04-22T13:45:33.212Z,53.30
2018-04-22T13:48:01.589Z,53.70
2018-04-22T13:50:29.962Z,53.80
2018-04-22T13:52:58.523Z,54.00
2018-04-22T13:55:26.893Z,54.30
2018-04-22T13:57:55.269Z,55.70
2018-04-22T14:00:24.472Z,58.00
2018-04-22T14:02:52.911Z,57.90
2018-04-22T14:05:21.280Z,58.70
2018-04-22T14:07:49.628Z,59.10
2018-04-22T14:10:18.681Z,57.70
2018-04-22T14:12:47.089Z,56.60
2018-04-22T14:15:16.224Z,56.30
2018-04-22T14:17:44.615Z,56.10
2018-04-22T14:20:13.511Z,54.80
2018-04-22T14:22:41.925Z,55.80
2018-04-22T14:25:10.533Z,55.00
2018-04-22T14:27:38.956Z,54.60
2018-04-22T14:30:07.385Z,53.80
2018-04-22T14:32:36.522Z,53.00
2018-04-22T14:35:04.875Z,52.90
2018-04-22T14:37:33.403Z,52.50
2018-04-22T14:40:01.979Z,53.40
2018-04-22T14:42:30.361Z,53.40
2018-04-22T14:45:10.617Z,53.50
2018-04-22T14:47:39.026Z,54.50
2018-04-22T14:50:07.471Z,54.10
2018-04-22T14:52:35.835Z,54.20
2018-04-22T14:55:04.300Z,54.30
2018-04-22T14:57:32.643Z,54.20
2018-04-22T15:00:01.032Z,53.50
2018-04-22T15:02:29.497Z,53.00
2018-04-22T15:04:58.357Z,53.10
2018-04-22T15:07:26.729Z,53.70
2018-04-22T15:09:55.152Z,54.30
2018-04-22T15:12:23.546Z,53.50
2018-04-22T15:14:51.914Z,53.90
2018-04-22T15:17:20.299Z,53.70
2018-04-22T15:19:48.834Z,53.40
2018-04-22T15:22:17.228Z,53.80
2018-04-22T15:24:45.587Z,55.00
2018-04-22T15:27:13.965Z,55.90
2018-04-22T15:29:43.003Z,55.90
2018-04-22T15:32:11.369Z,56.60
2018-04-22T15:34:39.871Z,56.80
2018-04-22T15:37:08.252Z,56.70
2018-04-22T15:39:36.710Z,56.90
2018-04-22T15:42:05.305Z,57.40
2018-04-22T15:44:33.695Z,58.00
2018-04-22T15:47:02.348Z,58.50
2018-04-22T15:49:30.727Z,58.70
2018-04-22T15:51:59.083Z,59.40
2018-04-22T15:54:27.467Z,61.10
2018-04-22T15:56:55.815Z,62.50
2018-04-22T15:59:24.951Z,64.60
2018-04-22T16:01:53.454Z,64.60
2018-04-22T16:04:22.133Z,65.50
2018-04-22T16:06:51.758Z,65.50
2018-04-22T16:09:20.278Z,66.60
2018-04-22T16:11:49.429Z,68.50
2018-04-22T16:14:17.833Z,68.40
2018-04-22T16:16:46.313Z,69.70
2018-04-22T16:19:14.682Z,70.70
2018-04-22T16:21:43.696Z,72.20
2018-04-22T16:24:12.073Z,73.60
2018-04-22T16:26:40.518Z,74.10
2018-04-22T16:29:08.880Z,75.70
2018-04-22T16:31:37.280Z,77.20
2018-04-22T16:34:05.694Z,79.10
2018-04-22T16:36:34.144Z,79.60
2018-04-22T16:39:02.516Z,80.10
2018-04-22T16:41:30.931Z,81.20
2018-04-22T16:43:59.301Z,82.10
2018-04-22T16:46:27.695Z,82.40
2018-04-22T16:48:56.088Z,84.30
2018-04-22T16:51:25.225Z,85.00
2018-04-22T16:53:53.666Z,84.90
2018-04-22T16:56:22.793Z,88.90
2018-04-22T16:58:51.179Z,88.20
2018-04-22T17:01:19.606Z,89.00
2018-04-22T17:03:47.935Z,90.10
2018-04-22T17:06:16.853Z,90.60
2018-04-22T17:08:45.299Z,91.20
2018-04-22T17:11:13.654Z,91.10
2018-04-22T17:13:42.819Z,88.40
2018-04-22T17:16:11.193Z,88.40
2018-04-22T17:18:39.997Z,89.40
2018-04-22T17:21:08.397Z,90.00
2018-04-22T17:23:37.512Z,91.40
2018-04-22T17:26:06.111Z,91.40
2018-04-22T17:28:34.465Z,91.70
2018-04-22T17:31:02.858Z,92.10
2018-04-22T17:33:31.212Z,92.90
2018-04-22T17:36:00.644Z,81.00
2018-04-22T17:38:29.898Z,77.60
2018-04-22T17:40:58.255Z,77.10
2018-04-22T17:43:26.619Z,78.80
2018-04-22T17:45:55.088Z,88.40
2018-04-22T17:48:23.552Z,91.80
2018-04-22T17:50:52.698Z,93.30
2018-04-22T17:53:21.115Z,93.30
2018-04-22T17:55:49.557Z,93.10
2018-04-22T17:58:17.893Z,93.40
2018-04-22T18:00:46.233Z,94.40
2018-04-22T18:03:14.699Z,94.80
2018-04-22T18:05:43.031Z,95.90
2018-04-22T18:08:11.703Z,96.30
2018-04-22T18:10:40.041Z,96.60
2018-04-22T18:13:08.377Z,96.90
2018-04-22T18:15:36.788Z,97.30
2018-04-22T18:18:05.165Z,97.40
2018-04-22T18:20:33.474Z,97.90
2018-04-22T18:23:01.815Z,98.10
2018-04-22T18:25:30.189Z,98.50
2018-04-22T18:27:59.403Z,99.50
2018-04-22T18:30:27.751Z,99.20
2018-04-22T18:32:56.114Z,99.00
2018-04-22T18:35:25.433Z,99.00
2018-04-22T18:37:53.969Z,99.00
2018-04-22T18:40:22.412Z,99.10
2018-04-22T18:42:50.738Z,99.40
2018-04-22T18:45:19.226Z,99.50
2018-04-22T18:47:47.749Z,99.30
2018-04-22T18:50:16.092Z,99.30
2018-04-22T18:52:45.832Z,99.20
2018-04-22T18:55:14.202Z,99.20
2018-04-22T18:57:42.551Z,99.60
2018-04-22T19:00:10.994Z,99.80
2018-04-22T19:02:39.311Z,99.90
2018-04-22T19:05:07.675Z,99.90
2018-04-22T19:07:36.786Z,99.90
2018-04-22T19:10:05.937Z,99.90
2018-04-22T19:12:34.294Z,99.90
2018-04-22T19:15:02.632Z,99.90
2018-04-22T19:17:30.988Z,99.90
2018-04-22T19:19:59.335Z,99.90
2018-04-22T19:22:27.705Z,99.90
2018-04-22T19:24:56.904Z,99.90
2018-04-22T19:27:25.257Z,99.90
2018-04-22T19:29:53.795Z,99.90
2018-04-22T19:32:22.140Z,99.90
2018-04-22T19:34:50.581Z,99.90
2018-04-22T19:37:19.139Z,99.90
2018-04-22T19:39:47.608Z,99.90
2018-04-22T19:42:15.977Z,99.90
2018-04-22T19:44:44.331Z,99.90
2018-04-22T19:47:13.446Z,99.90
2018-04-22T19:49:41.807Z,99.90
2018-04-22T19:52:10.947Z,99.90
2018-04-22T19:54:39.327Z,99.90
2018-04-22T19:57:07.742Z,99.90
2018-04-22T19:59:36.075Z,99.90
2018-04-22T20:02:04.420Z,99.90
2018-04-22T20:04:32.845Z,99.90
2018-04-22T20:07:01.191Z,99.90
2018-04-22T20:09:29.593Z,99.90
2018-04-22T20:11:57.980Z,99.90
2018-04-22T20:14:26.646Z,99.90
2018-04-22T20:16:55.796Z,99.90
2018-04-22T20:19:24.169Z,99.90
2018-04-22T20:21:52.729Z,99.90
2018-04-22T20:24:22.014Z,99.90
2018-04-22T20:26:50.503Z,99.90
2018-04-22T20:29:18.881Z,99.90
2018-04-22T20:31:47.385Z,99.90
2018-04-22T20:34:15.751Z,99.90
2018-04-22T20:36:44.139Z,99.90
2018-04-22T20:39:12.638Z,99.90
2018-04-22T20:41:41.008Z,99.90
2018-04-22T20:44:09.347Z,99.90
2018-04-22T20:46:37.871Z,99.90
2018-04-22T20:49:06.334Z,99.90
2018-04-22T20:51:34.753Z,99.90
2018-04-22T20:54:03.375Z,99.90
2018-04-22T20:56:32.479Z,99.90
2018-04-22T20:59:00.856Z,99.90
2018-04-22T21:01:29.220Z,99.90
2018-04-22T21:03:58.376Z,99.90
2018-04-22T21:06:26.757Z,99.90
2018-04-22T21:08:55.110Z,99.90
2018-04-22T21:11:23.470Z,99.90
2018-04-22T21:13:51.985Z,99.90
2018-04-22T21:16:20.400Z,99.90
2018-04-22T21:18:48.744Z,99.90
2018-04-22T21:21:17.097Z,99.90
2018-04-22T21:23:45.529Z,99.90
2018-04-22T21:26:13.949Z,99.90
2018-04-22T21:28:42.378Z,99.90
2018-04-22T21:31:10.745Z,99.90
2018-04-22T21:33:39.110Z,99.90
2018-04-22T21:36:07.486Z,99.90
2018-04-22T21:38:35.857Z,99.90
2018-04-22T21:41:04.209Z,99.90
2018-04-22T21:43:32.676Z,99.90
2018-04-22T21:46:02.412Z,99.90
2018-04-22T21:48:30.792Z,99.90
2018-04-22T21:50:59.327Z,99.90
2018-04-22T21:53:27.681Z,99.90
2018-04-22T21:55:56.070Z,99.90
2018-04-22T21:58:24.421Z,99.90
2018-04-22T22:00:52.887Z,99.90
2018-04-22T22:03:22.004Z,99.90
2018-04-22T22:05:50.371Z,99.90
2018-04-22T22:08:18.859Z,99.90
2018-04-22T22:10:47.242Z,99.90
2018-04-22T22:13:16.447Z,99.90
2018-04-22T22:15:44.844Z,99.90
2018-04-22T22:18:13.810Z,99.90
2018-04-22T22:20:42.138Z,99.90
2018-04-22T22:23:10.540Z,99.90
2018-04-22T22:25:38.986Z,99.90
2018-04-22T22:28:07.314Z,99.90
2018-04-22T22:30:35.676Z,99.90
2018-04-22T22:33:04.043Z,99.90
2018-04-22T22:35:32.401Z,99.90
2018-04-22T22:38:00.814Z,99.90
2018-04-22T22:40:29.450Z,99.90
2018-04-22T22:42:57.855Z,99.90
2018-04-22T22:45:27.124Z,99.90
2018-04-22T22:47:55.499Z,99.90
2018-04-22T22:50:23.935Z,99.90
2018-04-22T22:52:52.348Z,99.90
2018-04-22T22:55:20.839Z,99.90
2018-04-22T22:57:50.207Z,99.90
2018-04-22T23:00:22.502Z,99.90
2018-04-22T23:02:50.956Z,99.90
2018-04-22T23:05:19.350Z,99.90
2018-04-22T23:07:47.698Z,99.90
2018-04-22T23:10:16.144Z,99.90
2018-04-22T23:12:44.505Z,99.90
2018-04-22T23:15:12.848Z,99.90
2018-04-22T23:17:41.275Z,99.90
2018-04-22T23:20:09.751Z,99.90
2018-04-22T23:22:38.119Z,99.90
2018-04-22T23:25:06.487Z,99.90
2018-04-22T23:27:35.606Z,99.90
2018-04-22T23:30:04.045Z,99.90
2018-04-22T23:32:32.567Z,99.90
2018-04-22T23:35:00.955Z,99.90
2018-04-22T23:37:30.165Z,99.90
2018-04-22T23:39:58.835Z,99.90
2018-04-22T23:42:27.177Z,99.90
2018-04-22T23:44:56.302Z,99.90
2018-04-22T23:47:24.640Z,99.90
2018-04-22T23:49:53.432Z,99.90
2018-04-22T23:52:21.787Z,99.90
2018-04-22T23:54:50.138Z,99.90
2018-04-22T23:57:18.508Z,99.90
2018-04-22T23:59:46.854Z,99.90
